Time;durP1;ratioP1;P1;durP2;ratioP2;P2;SDS_P1;SDS_P2;PMS_P1;PMS_P2;Temp;Humidity;BMP_temperature;BMP_pressure;BME280_temperature;BME280_humidity;BME280_pressure;Samples;Min_cycle;Max_cycle;Signal;HPM_P1;HPM_P2
2021/10/04 01:18:06;;;;;;;1.20;0.50;;;11.70;93.10;;;;;;2135396;22;20051;-92
2021/10/04 01:19:25;;;;;;;0.80;0.43;;;11.80;93.20;;;;;;2098960;28;20523;-91
2021/10/04 01:20:45;;;;;;;1.40;0.60;;;11.70;93.20;;;;;;2093130;28;20037;-91
2021/10/04 01:22:04;;;;;;;1.50;0.70;;;11.80;93.30;;;;;;2093474;28;20039;-92
2021/10/04 01:23:24;;;;;;;1.10;0.68;;;11.80;93.30;;;;;;2108014;28;20071;-91
2021/10/04 01:24:43;;;;;;;2.08;0.65;;;11.80;93.30;;;;;;2107108;28;20036;-91
2021/10/04 01:26:03;;;;;;;1.50;0.60;;;11.80;93.30;;;;;;2109368;28;20048;-91
2021/10/04 01:27:22;;;;;;;2.00;0.80;;;11.80;93.30;;;;;;2110402;28;20101;-91
2021/10/04 01:28:41;;;;;;;1.88;0.85;;;11.80;93.30;;;;;;2112228;28;20039;-90
2021/10/04 01:30:01;;;;;;;2.22;0.80;;;11.80;93.30;;;;;;2106039;28;20111;-91
2021/10/04 01:31:23;;;;;;;1.40;0.70;;;11.80;93.30;;;;;;2095865;28;20040;-91
2021/10/04 01:32:44;;;;;;;1.48;0.68;;;11.80;93.30;;;;;;2095614;28;20452;-91
2021/10/04 01:34:04;;;;;;;1.23;0.70;;;11.80;93.40;;;;;;2095927;28;20029;-91
2021/10/04 01:35:24;;;;;;;;;;;11.80;93.30;;;;;;2106415;28;20039;-92
2021/10/04 01:36:43;;;;;;;1.65;0.75;;;11.80;93.30;;;;;;2112810;28;20283;-91
2021/10/04 01:38:03;;;;;;;2.75;0.70;;;11.80;93.30;;;;;;2107112;28;20526;-91
2021/10/04 01:39:22;;;;;;;2.00;0.80;;;11.80;93.30;;;;;;2102917;28;20041;-91
2021/10/04 01:40:43;;;;;;;1.52;0.60;;;11.80;93.30;;;;;;2103295;28;20068;-91
2021/10/04 01:42:03;;;;;;;1.38;0.65;;;11.80;93.30;;;;;;2105512;28;20028;-92
2021/10/04 01:43:22;;;;;;;2.45;0.63;;;11.80;93.30;;;;;;2087341;28;20041;-91
2021/10/04 01:44:42;;;;;;;1.63;0.50;;;11.80;93.30;;;;;;2099538;28;20036;-91
2021/10/04 01:46:01;;;;;;;1.55;0.63;;;11.80;93.30;;;;;;2097724;28;20279;-92
2021/10/04 01:47:21;;;;;;;1.30;0.68;;;11.80;93.30;;;;;;2095123;28;20496;-91
2021/10/04 01:48:40;;;;;;;1.80;0.60;;;11.80;93.30;;;;;;2087376;28;20507;-92
2021/10/04 01:49:59;;;;;;;0.57;0.50;;;11.80;93.30;;;;;;2105675;28;20035;-91
2021/10/04 01:51:18;;;;;;;1.40;0.70;;;11.80;93.30;;;;;;2116223;28;20384;-91
2021/10/04 01:52:39;;;;;;;1.77;0.70;;;11.80;93.30;;;;;;2112052;28;20111;-91
2021/10/04 01:53:58;;;;;;;1.35;0.60;;;11.80;93.30;;;;;;2109792;28;20036;-91
2021/10/04 01:55:17;;;;;;;0.95;0.68;;;11.80;93.30;;;;;;2110917;28;20036;-91
2021/10/04 01:56:37;;;;;;;1.15;0.60;;;11.80;93.30;;;;;;2099158;28;20036;-91
2021/10/04 01:57:56;;;;;;;1.77;0.50;;;11.80;93.30;;;;;;2095163;28;20032;-92
2021/10/04 01:59:15;;;;;;;0.90;0.55;;;11.80;93.30;;;;;;2108209;28;20039;-91
2021/10/04 02:00:36;;;;;;;1.00;0.60;;;11.80;93.30;;;;;;2096896;28;20529;-91
2021/10/04 02:01:55;;;;;;;1.50;0.50;;;11.80;93.30;;;;;;2107644;28;20071;-91
2021/10/04 02:03:15;;;;;;;1.60;0.60;;;11.80;93.30;;;;;;2104843;28;20040;-92
2021/10/04 02:04:34;;;;;;;1.08;0.50;;;11.90;93.30;;;;;;2107005;28;20119;-92
2021/10/04 02:05:53;;;;;;;3.38;1.10;;;11.80;93.30;;;;;;2118258;28;20036;-91
2021/10/04 02:07:13;;;;;;;1.13;0.50;;;11.80;93.30;;;;;;2108855;28;20067;-92
2021/10/04 02:08:32;;;;;;;0.93;0.55;;;11.80;93.30;;;;;;2107383;28;20040;-92
2021/10/04 02:09:51;;;;;;;0.80;0.50;;;11.80;93.30;;;;;;2089791;28;20044;-92
2021/10/04 02:11:11;;;;;;;2.35;0.60;;;11.90;93.30;;;;;;2091669;28;20040;-92
2021/10/04 02:12:30;;;;;;;2.00;0.50;;;11.80;93.20;;;;;;2100558;28;20052;-91
2021/10/04 02:13:49;;;;;;;1.60;0.60;;;11.90;93.20;;;;;;2107113;28;20039;-91
2021/10/04 02:15:10;;;;;;;0.95;0.60;;;11.90;93.20;;;;;;2098587;28;20036;-91
2021/10/04 02:16:29;;;;;;;2.03;0.60;;;11.90;93.20;;;;;;2099641;28;20370;-91
2021/10/04 02:17:49;;;;;;;1.88;0.60;;;11.90;93.20;;;;;;2109661;28;20044;-88
2021/10/04 02:19:08;;;;;;;2.17;0.60;;;11.90;93.20;;;;;;2125576;28;20031;-90
2021/10/04 02:20:32;;;;;;;1.65;0.70;;;11.90;93.20;;;;;;2124343;28;20047;-79
2021/10/04 02:21:52;;;;;;;1.10;0.60;;;11.90;93.20;;;;;;2118623;28;20028;-91
2021/10/04 02:23:11;;;;;;;1.83;0.63;;;11.90;93.20;;;;;;2111644;28;20497;-91
2021/10/04 02:24:31;;;;;;;1.23;0.43;;;11.90;93.20;;;;;;2096786;28;20036;-91
2021/10/04 02:25:52;;;;;;;2.20;0.50;;;11.90;93.10;;;;;;2108530;28;20044;-92
2021/10/04 02:27:11;;;;;;;1.00;0.50;;;11.90;93.10;;;;;;2106514;28;20040;-91
2021/10/04 02:28:31;;;;;;;1.33;0.40;;;11.90;93.10;;;;;;2112082;28;20043;-91
2021/10/04 02:29:50;;;;;;;0.38;0.32;;;11.90;93.10;;;;;;2114743;28;20040;-91
2021/10/04 02:31:09;;;;;;;0.75;0.40;;;11.80;93.10;;;;;;2110686;28;20031;-91
2021/10/04 02:32:28;;;;;;;1.13;0.50;;;11.90;93.10;;;;;;2113760;28;20469;-91
2021/10/04 02:33:47;;;;;;;1.67;0.50;;;11.90;93.10;;;;;;2112957;28;20115;-91
2021/10/04 02:35:07;;;;;;;1.38;0.50;;;11.80;93.10;;;;;;2115734;28;20572;-91
2021/10/04 02:36:26;;;;;;;1.77;0.60;;;11.80;93.10;;;;;;2115816;28;20031;-90
2021/10/04 02:37:47;;;;;;;1.25;0.50;;;11.80;93.10;;;;;;2108713;28;20040;-91
2021/10/04 02:39:07;;;;;;;2.13;0.47;;;11.80;93.10;;;;;;2095702;28;20049;-91
2021/10/04 02:40:26;;;;;;;1.00;0.40;;;11.80;93.10;;;;;;2107721;28;20039;-90
2021/10/04 02:41:46;;;;;;;1.30;0.52;;;11.80;93.10;;;;;;2116915;28;20028;-89
2021/10/04 02:43:05;;;;;;;1.35;0.50;;;11.80;93.10;;;;;;2115248;28;20466;-91
2021/10/04 02:44:25;;;;;;;1.33;0.50;;;11.80;93.10;;;;;;2114922;28;20123;-90
2021/10/04 02:45:46;;;;;;;1.42;0.52;;;11.90;93.10;;;;;;2114868;28;20501;-91
2021/10/04 02:47:06;;;;;;;1.42;0.40;;;11.80;93.10;;;;;;2108685;28;20390;-91
2021/10/04 02:48:25;;;;;;;1.45;0.50;;;11.80;93.10;;;;;;2104887;28;20039;-92
2021/10/04 02:49:45;;;;;;;1.17;0.50;;;11.80;93.10;;;;;;2094243;28;20059;-90
2021/10/04 02:51:04;;;;;;;0.85;0.43;;;11.80;93.10;;;;;;2098898;28;20036;-91
2021/10/04 02:52:23;;;;;;;1.27;0.60;;;11.80;93.10;;;;;;2099549;28;20051;-90
2021/10/04 02:53:42;;;;;;;1.75;0.60;;;11.80;93.10;;;;;;2103310;28;20043;-91
2021/10/04 02:55:02;;;;;;;3.58;0.65;;;11.80;93.10;;;;;;2098578;28;20037;-90
2021/10/04 02:56:21;;;;;;;1.52;0.60;;;11.80;93.10;;;;;;2107045;28;20047;-91
2021/10/04 02:57:41;;;;;;;2.00;0.60;;;11.80;93.10;;;;;;2114977;28;20031;-91
2021/10/04 02:59:00;;;;;;;1.80;0.63;;;11.80;93.00;;;;;;2114498;28;20110;-91
2021/10/04 03:00:20;;;;;;;1.85;0.60;;;11.80;93.00;;;;;;2101382;28;20072;-92
2021/10/04 03:01:39;;;;;;;1.30;0.50;;;11.80;93.00;;;;;;2106843;28;20036;-87
2021/10/04 03:02:59;;;;;;;0.73;0.43;;;11.80;93.00;;;;;;2105844;28;20107;-90
2021/10/04 03:04:19;;;;;;;1.40;0.60;;;11.80;93.00;;;;;;2110751;28;20478;-90
2021/10/04 03:05:38;;;;;;;0.95;0.47;;;11.80;93.00;;;;;;2115401;28;20036;-91
2021/10/04 03:06:57;;;;;;;1.38;0.50;;;11.80;93.00;;;;;;2106032;28;20040;-91
2021/10/04 03:08:16;;;;;;;1.23;0.50;;;11.80;93.00;;;;;;2107732;28;20529;-90
2021/10/04 03:09:35;;;;;;;0.60;0.45;;;11.80;93.00;;;;;;2118513;28;20047;-91
2021/10/04 03:10:54;;;;;;;1.20;0.47;;;11.80;93.00;;;;;;2112856;28;20421;-91
2021/10/04 03:12:13;;;;;;;0.90;0.47;;;11.80;93.00;;;;;;2108617;28;20052;-92
2021/10/04 03:13:33;;;;;;;1.35;0.50;;;11.80;93.00;;;;;;2108155;28;20059;-91
2021/10/04 03:14:52;;;;;;;0.70;0.40;;;11.80;92.90;;;;;;2104097;28;20060;-91
2021/10/04 03:16:11;;;;;;;1.02;0.50;;;11.80;92.90;;;;;;2099877;28;20040;-90
2021/10/04 03:17:30;;;;;;;1.70;0.60;;;11.80;92.90;;;;;;2102965;28;20044;-92
2021/10/04 03:18:49;;;;;;;2.00;0.50;;;11.90;92.90;;;;;;2105636;28;20052;-91
2021/10/04 03:20:10;;;;;;;1.42;0.40;;;11.80;92.90;;;;;;2098427;28;20486;-91
2021/10/04 03:21:29;;;;;;;1.67;0.60;;;11.80;92.80;;;;;;2102218;28;20052;-91
2021/10/04 03:22:48;;;;;;;2.15;0.52;;;11.90;92.90;;;;;;2103112;28;20044;-91
2021/10/04 03:24:10;;;;;;;1.00;0.40;;;11.90;92.90;;;;;;2109173;28;20043;-90
2021/10/04 03:25:29;;;;;;;2.47;0.60;;;11.80;92.80;;;;;;2103780;28;20053;-91
2021/10/04 03:26:48;;;;;;;2.13;0.60;;;11.80;92.80;;;;;;2102742;28;20510;-91
2021/10/04 03:28:08;;;;;;;1.35;0.45;;;11.80;92.80;;;;;;2106995;28;20080;-91
2021/10/04 03:29:27;;;;;;;1.30;0.50;;;11.90;92.80;;;;;;2102462;28;20474;-91
2021/10/04 03:30:46;;;;;;;1.40;0.43;;;11.80;92.80;;;;;;2106146;28;20043;-90
2021/10/04 03:32:06;;;;;;;1.30;0.50;;;11.90;92.80;;;;;;2101682;28;20056;-91
2021/10/04 03:33:25;;;;;;;1.30;0.60;;;11.90;92.80;;;;;;2107637;28;20040;-91
2021/10/04 03:34:44;;;;;;;1.27;0.40;;;11.90;92.80;;;;;;2097647;28;20444;-91
2021/10/04 03:36:04;;;;;;;1.70;0.60;;;11.80;92.70;;;;;;2102740;28;20024;-91
2021/10/04 03:37:23;;;;;;;1.30;0.60;;;11.80;92.70;;;;;;2099350;28;20119;-92
2021/10/04 03:38:43;;;;;;;1.85;0.50;;;11.80;92.70;;;;;;2105061;28;20070;-91
2021/10/04 03:40:05;;;;;;;0.68;0.50;;;11.90;92.70;;;;;;2106312;28;20040;-91
2021/10/04 03:41:24;;;;;;;1.45;0.43;;;11.90;92.70;;;;;;2099007;28;20131;-90
2021/10/04 03:42:44;;;;;;;1.38;0.40;;;11.90;92.70;;;;;;2101617;28;20064;-91
2021/10/04 03:44:04;;;;;;;1.67;0.63;;;11.90;92.70;;;;;;2105663;28;20048;-90
2021/10/04 03:45:23;;;;;;;0.93;0.50;;;11.90;92.70;;;;;;2105940;28;20270;-91
2021/10/04 03:46:42;;;;;;;3.08;0.50;;;11.90;92.70;;;;;;2106307;28;20282;-91
2021/10/04 03:48:02;;;;;;;1.75;0.50;;;11.90;92.70;;;;;;2094727;28;20041;-90
2021/10/04 03:49:21;;;;;;;1.38;0.50;;;11.90;92.70;;;;;;2097046;28;20044;-91
2021/10/04 03:50:40;;;;;;;1.80;0.40;;;11.90;92.70;;;;;;2103975;28;20600;-91
2021/10/04 03:52:00;;;;;;;0.85;0.50;;;11.90;92.70;;;;;;2107344;28;22258;-91
2021/10/04 03:53:19;;;;;;;0.70;0.40;;;11.90;92.70;;;;;;2110995;28;20326;-92
2021/10/04 03:54:38;;;;;;;0.60;0.35;;;11.90;92.70;;;;;;2101233;28;20064;-90
2021/10/04 03:55:57;;;;;;;1.08;0.45;;;11.90;92.70;;;;;;2094596;28;20044;-90
2021/10/04 03:57:17;;;;;;;1.27;0.55;;;11.90;92.70;;;;;;2099101;28;20040;-90
2021/10/04 03:58:36;;;;;;;0.75;0.45;;;11.90;92.70;;;;;;2088364;28;20430;-91
2021/10/04 03:59:56;;;;;;;1.45;0.45;;;11.90;92.90;;;;;;2103359;28;20040;-91
2021/10/04 04:01:15;;;;;;;1.02;0.40;;;11.90;92.60;;;;;;2096755;28;20044;-90
2021/10/04 04:02:34;;;;;;;0.88;0.40;;;11.90;92.60;;;;;;2086465;28;20036;-91
2021/10/04 04:03:54;;;;;;;2.00;0.57;;;11.90;92.60;;;;;;2099534;28;20048;-91
2021/10/04 04:05:15;;;;;;;2.58;0.60;;;11.90;92.60;;;;;;2101612;28;20040;-91
2021/10/04 04:06:34;;;;;;;1.08;0.35;;;11.90;92.60;;;;;;2106036;28;20490;-91
2021/10/04 04:07:53;;;;;;;0.98;0.50;;;11.90;92.60;;;;;;2096976;28;20037;-90
2021/10/04 04:09:12;;;;;;;1.65;0.50;;;11.90;92.60;;;;;;2099167;28;20526;-91
2021/10/04 04:10:32;;;;;;;2.28;0.47;;;11.90;92.60;;;;;;2106377;28;20472;-91
2021/10/04 04:11:51;;;;;;;1.63;0.40;;;11.90;92.60;;;;;;2110788;28;20043;-90
2021/10/04 04:13:10;;;;;;;1.30;0.40;;;12.00;92.60;;;;;;2104967;28;20048;-90
2021/10/04 04:14:29;;;;;;;1.30;0.40;;;11.90;92.60;;;;;;2107696;28;20494;-91
2021/10/04 04:15:48;;;;;;;0.88;0.40;;;11.90;92.60;;;;;;2107489;28;20124;-91
2021/10/04 04:17:07;;;;;;;1.85;0.50;;;11.90;92.60;;;;;;2107436;28;20068;-90
2021/10/04 04:18:26;;;;;;;0.73;0.50;;;11.90;92.60;;;;;;2111183;28;20051;-91
2021/10/04 04:19:46;;;;;;;1.83;0.47;;;12.00;92.60;;;;;;2099606;28;20040;-91
2021/10/04 04:21:05;;;;;;;0.93;0.40;;;11.90;92.50;;;;;;2111690;28;20047;-91
2021/10/04 04:22:25;;;;;;;2.33;0.60;;;12.00;92.60;;;;;;2105833;28;20040;-91
2021/10/04 04:23:44;;;;;;;1.42;0.40;;;12.00;92.60;;;;;;2108678;28;20461;-91
2021/10/04 04:25:04;;;;;;;1.02;0.50;;;11.90;92.60;;;;;;2104935;28;20032;-90
2021/10/04 04:26:23;;;;;;;2.28;0.50;;;12.00;92.60;;;;;;2110426;28;20047;-94
2021/10/04 04:27:43;;;;;;;1.92;0.43;;;12.00;92.60;;;;;;2100575;28;20119;-91
2021/10/04 04:29:03;;;;;;;0.80;0.45;;;12.00;92.50;;;;;;2111794;28;20040;-92
2021/10/04 04:30:22;;;;;;;0.90;0.40;;;12.00;92.50;;;;;;2115814;28;20028;-90
2021/10/04 04:31:41;;;;;;;0.98;0.40;;;12.00;92.50;;;;;;2116055;28;20040;-90
2021/10/04 04:33:01;;;;;;;0.85;0.40;;;12.00;92.50;;;;;;2112918;28;20497;-91
2021/10/04 04:34:20;;;;;;;1.00;0.35;;;12.00;92.50;;;;;;2100430;28;20041;-88
2021/10/04 04:35:39;;;;;;;1.27;0.60;;;12.00;92.50;;;;;;2102394;28;20048;-91
2021/10/04 04:36:59;;;;;;;2.22;0.50;;;12.00;92.50;;;;;;2116318;28;20044;-91
2021/10/04 04:38:19;;;;;;;1.67;0.50;;;12.00;92.50;;;;;;2101473;28;20036;-91
2021/10/04 04:39:38;;;;;;;1.70;0.60;;;12.00;92.50;;;;;;2110604;28;20465;-92
2021/10/04 04:40:57;;;;;;;1.95;0.40;;;12.00;92.50;;;;;;2100856;28;20127;-90
2021/10/04 04:42:17;;;;;;;1.00;0.40;;;12.00;92.50;;;;;;2105764;28;20084;-91
2021/10/04 04:43:37;;;;;;;1.17;0.40;;;12.00;92.40;;;;;;2118144;28;20035;-91
2021/10/04 04:44:56;;;;;;;1.23;0.50;;;12.00;92.40;;;;;;2091966;28;20028;-91
2021/10/04 04:46:15;;;;;;;1.38;0.38;;;12.00;92.40;;;;;;2097441;28;20039;-91
2021/10/04 04:47:34;;;;;;;1.40;0.50;;;12.00;92.40;;;;;;2095930;28;20563;-91
2021/10/04 04:48:53;;;;;;;1.13;0.47;;;12.00;92.40;;;;;;2096976;28;20032;-90
2021/10/04 04:50:12;;;;;;;1.88;0.60;;;12.00;92.40;;;;;;2100991;28;20040;-91
2021/10/04 04:51:32;;;;;;;1.35;0.50;;;12.00;92.40;;;;;;2091722;28;20049;-91
2021/10/04 04:52:51;;;;;;;1.08;0.50;;;12.00;92.40;;;;;;2091372;28;20052;-92
2021/10/04 04:54:11;;;;;;;0.75;0.50;;;12.00;92.40;;;;;;2093466;28;20032;-92
2021/10/04 04:55:30;;;;;;;1.50;0.52;;;12.00;92.40;;;;;;2097020;28;20048;-92
2021/10/04 04:56:50;;;;;;;0.93;0.40;;;12.00;92.40;;;;;;2083310;28;20045;-92
2021/10/04 04:58:09;;;;;;;1.45;0.50;;;12.00;92.40;;;;;;2103951;28;20036;-87
2021/10/04 04:59:29;;;;;;;0.90;0.55;;;12.00;92.40;;;;;;2097015;28;20044;-91
2021/10/04 05:00:48;;;;;;;2.20;0.50;;;12.00;92.40;;;;;;2097327;28;20150;-85
2021/10/04 05:02:07;;;;;;;1.15;0.50;;;12.00;92.40;;;;;;2102339;28;20533;-89
2021/10/04 05:03:26;;;;;;;1.73;0.52;;;12.00;92.40;;;;;;2103690;28;20040;-90
2021/10/04 05:04:46;;;;;;;0.52;0.40;;;12.00;92.40;;;;;;2113440;28;20032;-90
2021/10/04 05:06:05;;;;;;;1.35;0.52;;;11.90;92.40;;;;;;2109699;28;20048;-90
2021/10/04 05:07:24;;;;;;;2.25;0.60;;;11.90;92.40;;;;;;2104685;28;20040;-90
2021/10/04 05:08:44;;;;;;;1.45;0.50;;;12.00;92.40;;;;;;2113092;28;20087;-90
2021/10/04 05:10:05;;;;;;;0.93;0.43;;;11.90;92.40;;;;;;2112078;28;20044;-88
2021/10/04 05:11:24;;;;;;;1.10;0.52;;;12.00;92.40;;;;;;2120075;28;20055;-91
2021/10/04 05:12:44;;;;;;;2.33;0.60;;;11.90;92.40;;;;;;2108569;28;20044;-90
2021/10/04 05:14:03;;;;;;;2.08;0.60;;;12.00;92.40;;;;;;2109476;28;20188;-90
2021/10/04 05:15:22;;;;;;;1.48;0.45;;;12.00;92.40;;;;;;2115068;28;20035;-90
2021/10/04 05:16:42;;;;;;;1.35;0.50;;;12.00;92.40;;;;;;2098886;28;20025;-90
2021/10/04 05:18:02;;;;;;;2.10;0.50;;;12.00;92.40;;;;;;2101018;28;20044;-90
2021/10/04 05:19:22;;;;;;;2.65;0.47;;;12.00;92.40;;;;;;2107433;28;20040;-90
2021/10/04 05:20:41;;;;;;;0.95;0.50;;;11.90;92.30;;;;;;2098116;28;20040;-90
2021/10/04 05:22:00;;;;;;;1.73;0.50;;;12.00;92.40;;;;;;2091299;28;20037;-89
2021/10/04 05:23:20;;;;;;;0.95;0.43;;;11.90;92.30;;;;;;2094207;28;20489;-90
2021/10/04 05:24:39;;;;;;;1.20;0.50;;;12.00;92.30;;;;;;2089831;28;20029;-90
2021/10/04 05:25:58;;;;;;;1.70;0.60;;;11.90;92.30;;;;;;2096255;28;20036;-90
2021/10/04 05:27:18;;;;;;;1.00;0.40;;;11.90;92.30;;;;;;2098371;28;20048;-90
2021/10/04 05:28:37;;;;;;;0.70;0.50;;;12.00;92.30;;;;;;2090214;28;20040;-86
2021/10/04 05:29:57;;;;;;;2.53;0.60;;;11.90;92.30;;;;;;2103542;28;20429;-91
2021/10/04 05:31:16;;;;;;;0.80;0.40;;;12.00;92.30;;;;;;2110201;28;20123;-91
2021/10/04 05:32:36;;;;;;;0.55;0.40;;;12.00;92.30;;;;;;2106837;28;20131;-91
2021/10/04 05:33:55;;;;;;;1.65;0.50;;;11.90;92.30;;;;;;2104507;28;20064;-92
2021/10/04 05:35:15;;;;;;;1.30;0.40;;;11.90;92.30;;;;;;2106831;28;20048;-91
2021/10/04 05:36:34;;;;;;;1.65;0.43;;;11.90;92.30;;;;;;2107233;28;20414;-92
2021/10/04 05:37:54;;;;;;;1.30;0.40;;;11.90;92.30;;;;;;2094676;28;20040;-92
2021/10/04 05:39:13;;;;;;;1.75;0.90;;;11.90;92.30;;;;;;2102064;28;20664;-92
2021/10/04 05:40:33;;;;;;;0.88;0.40;;;11.90;92.30;;;;;;2102740;28;20032;-91
2021/10/04 05:41:52;;;;;;;0.77;0.40;;;11.90;92.30;;;;;;2087907;28;20033;-92
2021/10/04 05:43:11;;;;;;;1.00;0.50;;;11.90;92.30;;;;;;2085266;28;20487;-91
2021/10/04 05:44:31;;;;;;;2.42;0.60;;;11.90;92.30;;;;;;2096124;28;20036;-92
2021/10/04 05:45:50;;;;;;;1.20;0.40;;;11.90;92.30;;;;;;2087507;28;20107;-92
2021/10/04 05:47:09;;;;;;;2.38;0.50;;;11.90;92.30;;;;;;2092032;28;20564;-93
2021/10/04 05:48:28;;;;;;;1.00;0.43;;;11.90;92.30;;;;;;2091220;28;20044;-92
2021/10/04 05:49:47;;;;;;;1.88;0.50;;;11.90;92.30;;;;;;2096884;28;20040;-92
2021/10/04 05:51:09;;;;;;;2.58;0.50;;;11.90;92.30;;;;;;2108120;28;20228;-91
2021/10/04 05:52:28;;;;;;;1.73;0.47;;;11.90;92.30;;;;;;2088468;28;20045;-92
2021/10/04 05:53:48;;;;;;;1.42;0.50;;;11.90;92.30;;;;;;2080673;28;20037;-92
2021/10/04 05:55:08;;;;;;;1.02;0.40;;;11.90;92.30;;;;;;2090844;28;20423;-92
2021/10/04 05:56:27;;;;;;;1.67;0.60;;;11.90;92.20;;;;;;2103713;28;20067;-92
2021/10/04 05:57:46;;;;;;;2.65;0.50;;;11.90;92.20;;;;;;2082083;28;20041;-92
2021/10/04 05:59:06;;;;;;;2.38;0.45;;;11.90;92.20;;;;;;2095198;28;20490;-92
2021/10/04 06:00:25;;;;;;;2.22;0.60;;;11.90;92.20;;;;;;2100520;28;20028;-90
2021/10/04 06:01:44;;;;;;;0.85;0.40;;;11.90;92.20;;;;;;2097701;28;20040;-91
2021/10/04 06:03:04;;;;;;;1.48;0.47;;;11.90;92.20;;;;;;2092877;28;20062;-91
2021/10/04 06:04:23;;;;;;;0.95;0.40;;;11.90;92.20;;;;;;2104456;28;20031;-91
2021/10/04 06:05:42;;;;;;;2.05;0.40;;;11.90;92.20;;;;;;2105933;28;20048;-91
2021/10/04 06:07:02;;;;;;;1.67;0.40;;;11.90;92.20;;;;;;2096736;28;20037;-91
2021/10/04 06:08:21;;;;;;;0.40;0.40;;;12.00;92.30;;;;;;2088788;28;20037;-91
2021/10/04 06:09:40;;;;;;;1.10;0.40;;;12.00;92.20;;;;;;2091118;28;20040;-90
2021/10/04 06:11:00;;;;;;;1.58;0.50;;;11.90;92.20;;;;;;2096329;28;20506;-90
2021/10/04 06:12:24;;;;;;;2.35;0.50;;;11.90;92.20;;;;;;2099093;28;20075;-90
2021/10/04 06:13:43;;;;;;;1.63;0.40;;;12.00;92.20;;;;;;2091337;28;20049;-90
2021/10/04 06:15:03;;;;;;;2.15;0.45;;;11.90;92.20;;;;;;2087420;28;20507;-91
2021/10/04 06:16:22;;;;;;;1.05;0.40;;;11.90;92.20;;;;;;2092158;28;20032;-91
2021/10/04 06:17:42;;;;;;;1.00;0.45;;;11.90;92.20;;;;;;2097567;28;20040;-91
2021/10/04 06:19:02;;;;;;;1.67;0.45;;;12.00;92.20;;;;;;2085601;28;20050;-92
2021/10/04 06:20:22;;;;;;;1.95;0.52;;;12.00;92.20;;;;;;2090692;28;20029;-90
2021/10/04 06:21:42;;;;;;;1.30;0.60;;;11.90;92.20;;;;;;2093515;28;20036;-90
2021/10/04 06:23:01;;;;;;;3.33;0.60;;;12.00;92.20;;;;;;2103030;28;20036;-92
2021/10/04 06:24:20;;;;;;;1.33;0.40;;;12.00;92.20;;;;;;2107146;28;20032;-90
2021/10/04 06:25:40;;;;;;;2.22;0.55;;;12.00;92.20;;;;;;2086702;28;20068;-91
2021/10/04 06:26:59;;;;;;;1.48;0.60;;;12.00;92.20;;;;;;2093761;28;20076;-91
2021/10/04 06:28:18;;;;;;;2.20;0.60;;;11.90;92.10;;;;;;2104096;28;20040;-90
2021/10/04 06:29:37;;;;;;;1.75;0.50;;;12.00;92.20;;;;;;2108275;28;20028;-91
2021/10/04 06:30:57;;;;;;;1.15;0.40;;;12.00;92.20;;;;;;2104895;28;20028;-92
2021/10/04 06:32:16;;;;;;;2.42;0.50;;;12.00;92.10;;;;;;2108190;28;20044;-92
2021/10/04 06:33:36;;;;;;;2.40;0.40;;;12.00;92.10;;;;;;2107695;28;20048;-91
2021/10/04 06:34:55;;;;;;;2.05;0.70;;;12.00;92.10;;;;;;2105699;28;20028;-91
2021/10/04 06:36:14;;;;;;;1.52;0.63;;;12.00;92.10;;;;;;2083801;28;20041;-91
2021/10/04 06:37:33;;;;;;;2.25;0.47;;;12.00;92.10;;;;;;2085925;28;20045;-91
2021/10/04 06:38:53;;;;;;;1.90;0.40;;;12.00;92.10;;;;;;2090648;28;20037;-91
2021/10/04 06:40:13;;;;;;;1.10;0.40;;;12.00;92.10;;;;;;2090299;28;20120;-91
2021/10/04 06:41:33;;;;;;;1.40;0.60;;;12.00;92.10;;;;;;2091893;28;20045;-91
2021/10/04 06:42:52;;;;;;;2.28;0.57;;;12.00;92.00;;;;;;2087243;28;20037;-91
2021/10/04 06:44:11;;;;;;;1.42;0.60;;;12.00;92.00;;;;;;2102088;28;20044;-91
2021/10/04 06:45:31;;;;;;;2.30;0.60;;;12.10;92.30;;;;;;2098441;28;20032;-91
2021/10/04 06:46:50;;;;;;;1.27;0.57;;;12.10;92.00;;;;;;2101418;28;20107;-90
2021/10/04 06:48:09;;;;;;;0.65;0.38;;;12.00;92.00;;;;;;2106384;28;20040;-91
2021/10/04 06:49:28;;;;;;;1.25;0.50;;;12.10;92.00;;;;;;2101408;28;20525;-91
2021/10/04 06:50:48;;;;;;;1.40;0.60;;;12.10;92.00;;;;;;2094449;28;20048;-90
2021/10/04 06:52:08;;;;;;;;;;;12.00;91.90;;;;;;2096583;28;20044;-92
2021/10/04 06:53:27;;;;;;;1.55;0.68;;;12.10;91.90;;;;;;2080150;28;19952;-91
2021/10/04 06:54:47;;;;;;;1.95;0.60;;;12.10;91.90;;;;;;2091846;28;20473;-90
2021/10/04 06:56:07;;;;;;;1.10;0.50;;;12.10;91.90;;;;;;2095790;28;20047;-91
2021/10/04 06:57:26;;;;;;;2.13;0.50;;;12.10;91.90;;;;;;2086418;28;20045;-90
2021/10/04 06:58:45;;;;;;;1.90;0.38;;;12.10;91.80;;;;;;2097660;28;20044;-90
2021/10/04 07:00:08;;;;;;;1.33;0.57;;;12.20;91.80;;;;;;2096987;28;20511;-91
2021/10/04 07:01:27;;;;;;;2.13;0.60;;;12.20;91.80;;;;;;2103951;28;20418;-90
2021/10/04 07:02:50;;;;;;;1.40;0.57;;;12.20;91.80;;;;;;2090549;28;20030;-90
2021/10/04 07:04:10;;;;;;;2.03;0.55;;;12.20;91.80;;;;;;2097849;28;20079;-90
2021/10/04 07:05:29;;;;;;;1.48;0.50;;;12.20;91.80;;;;;;2080268;28;20112;-91
2021/10/04 07:06:48;;;;;;;1.20;0.50;;;12.20;91.80;;;;;;2102254;28;20118;-92
2021/10/04 07:08:08;;;;;;;1.00;0.40;;;12.20;91.70;;;;;;2097640;28;20037;-91
2021/10/04 07:09:27;;;;;;;1.05;0.57;;;12.30;91.70;;;;;;2092432;28;20028;-91
2021/10/04 07:10:47;;;;;;;1.75;0.52;;;12.30;91.70;;;;;;2093996;28;20092;-91
2021/10/04 07:12:06;;;;;;;1.58;0.50;;;12.30;91.70;;;;;;2107063;28;20047;-92
2021/10/04 07:13:26;;;;;;;2.55;0.50;;;12.30;91.70;;;;;;2096074;28;20080;-91
2021/10/04 07:14:45;;;;;;;3.60;0.60;;;12.30;91.70;;;;;;2096824;28;20040;-91
2021/10/04 07:16:05;;;;;;;1.08;0.60;;;12.20;91.60;;;;;;2103037;28;20114;-91
2021/10/04 07:17:24;;;;;;;2.83;0.65;;;12.30;91.60;;;;;;2099806;28;20036;-91
2021/10/04 07:18:43;;;;;;;3.38;0.50;;;12.30;91.60;;;;;;2090082;28;20045;-91
2021/10/04 07:20:03;;;;;;;1.65;0.60;;;12.20;91.60;;;;;;2098264;28;20079;-91
2021/10/04 07:21:23;;;;;;;0.63;0.40;;;12.30;91.60;;;;;;2090790;28;20124;-91
2021/10/04 07:22:43;;;;;;;1.23;0.70;;;12.30;91.60;;;;;;2088382;28;20069;-91
2021/10/04 07:24:02;;;;;;;1.95;0.57;;;12.20;91.60;;;;;;2096923;28;20036;-90
2021/10/04 07:25:21;;;;;;;1.50;0.50;;;12.20;91.60;;;;;;2087930;28;20049;-95
2021/10/04 07:26:41;;;;;;;1.17;0.40;;;12.20;91.60;;;;;;2099251;28;20044;-92
2021/10/04 07:28:01;;;;;;;1.25;0.50;;;12.30;91.70;;;;;;2108035;28;20048;-92
2021/10/04 07:29:21;;;;;;;1.10;0.50;;;12.20;91.60;;;;;;2106724;28;20024;-93
2021/10/04 07:30:40;;;;;;;0.90;0.50;;;12.20;91.60;;;;;;2094494;28;20558;-94
2021/10/04 07:32:03;;;;;;;1.33;0.47;;;12.20;91.60;;;;;;2095898;28;20056;-94
2021/10/04 07:33:23;;;;;;;2.45;0.50;;;12.20;91.60;;;;;;2089955;28;20045;-94
2021/10/04 07:34:42;;;;;;;1.17;0.40;;;12.20;91.60;;;;;;2108528;28;20044;-93
2021/10/04 07:36:06;;;;;;;1.52;0.50;;;12.20;91.60;;;;;;2115849;28;20024;-93
2021/10/04 07:37:26;;;;;;;1.98;0.60;;;12.20;91.60;;;;;;2107435;28;20029;-92
2021/10/04 07:38:46;;;;;;;1.73;0.63;;;12.30;91.60;;;;;;2104870;28;20040;-93
2021/10/04 07:40:06;;;;;;;2.55;0.50;;;12.20;91.60;;;;;;2089092;28;20274;-93
2021/10/04 07:41:26;;;;;;;2.10;0.70;;;12.20;91.60;;;;;;2098848;28;20044;-93
2021/10/04 07:42:46;;;;;;;1.65;0.50;;;12.30;91.60;;;;;;2103849;28;20517;-92
2021/10/04 07:44:05;;;;;;;2.25;0.50;;;12.30;91.60;;;;;;2109823;28;20044;-93
2021/10/04 07:45:25;;;;;;;1.08;0.47;;;12.30;91.60;;;;;;2104707;28;20040;-93
2021/10/04 07:46:44;;;;;;;1.70;0.60;;;12.30;91.60;;;;;;2098769;28;20029;-93
2021/10/04 07:48:04;;;;;;;1.98;0.57;;;12.40;91.60;;;;;;2095327;28;20073;-92
2021/10/04 07:49:25;;;;;;;1.67;0.50;;;12.40;91.50;;;;;;2113659;28;20032;-86
2021/10/04 07:50:45;;;;;;;1.05;0.47;;;12.40;91.50;;;;;;2108961;28;20064;-93
2021/10/04 07:52:05;;;;;;;0.90;0.50;;;12.40;91.80;;;;;;2098073;28;20025;-93
2021/10/04 07:53:24;;;;;;;2.55;0.50;;;12.40;91.50;;;;;;2105556;28;20719;-93
2021/10/04 07:54:43;;;;;;;0.85;0.50;;;12.40;91.50;;;;;;2107071;28;20067;-93
2021/10/04 07:56:03;;;;;;;1.67;0.52;;;12.40;91.50;;;;;;2088775;28;20049;-93
2021/10/04 07:57:22;;;;;;;1.80;0.65;;;12.40;91.50;;;;;;2090489;28;20469;-92
2021/10/04 07:58:41;;;;;;;1.20;0.43;;;12.40;91.40;;;;;;2090953;28;20044;-93
2021/10/04 08:00:02;;;;;;;2.17;0.60;;;12.40;91.50;;;;;;2097874;28;20028;-93
2021/10/04 08:01:22;;;;;;;2.13;0.60;;;12.40;91.40;;;;;;2103440;28;20021;-87
2021/10/04 08:02:42;;;;;;;0.85;0.50;;;12.40;91.40;;;;;;2117545;28;20079;-87
2021/10/04 08:04:03;;;;;;;2.67;0.60;;;12.40;91.40;;;;;;2112607;28;20024;-85
2021/10/04 08:05:23;;;;;;;0.93;0.50;;;12.40;91.40;;;;;;2118005;28;20016;-94
2021/10/04 08:06:43;;;;;;;1.75;0.52;;;12.40;91.40;;;;;;2117126;28;20047;-94
2021/10/04 08:08:02;;;;;;;3.20;0.70;;;12.40;91.40;;;;;;2098262;28;20037;-95
2021/10/04 08:09:21;;;;;;;1.45;0.52;;;12.40;91.40;;;;;;2087954;28;20041;-94
2021/10/04 08:10:41;;;;;;;2.40;0.60;;;12.40;91.40;;;;;;2099237;28;20036;-93
2021/10/04 08:12:01;;;;;;;0.85;0.38;;;12.50;91.50;;;;;;2098503;28;20056;-94